sensor_id;sensor_type;location;lat;lon;timestamp;temperature;humidity
27266;DHT22;14766;51.380;13.762;2023-04-03T00:01:06;8.10;50.90
27266;DHT22;14766;51.380;13.762;2023-04-03T00:03:34;8.10;51.00
27266;DHT22;14766;51.380;13.762;2023-04-03T00:06:02;8.10;51.00
27266;DHT22;14766;51.380;13.762;2023-04-03T00:08:29;8.10;50.60
27266;DHT22;14766;51.380;13.762;2023-04-03T00:10:57;8.10;50.80
27266;DHT22;14766;51.380;13.762;2023-04-03T00:13:24;8.00;50.70
27266;DHT22;14766;51.380;13.762;2023-04-03T00:15:52;8.00;50.80
27266;DHT22;14766;51.380;13.762;2023-04-03T00:18:20;8.00;50.90
27266;DHT22;14766;51.380;13.762;2023-04-03T00:20:48;8.00;50.80
27266;DHT22;14766;51.380;13.762;2023-04-03T00:23:15;8.00;50.80
27266;DHT22;14766;51.380;13.762;2023-04-03T00:25:43;8.00;50.90
27266;DHT22;14766;51.380;13.762;2023-04-03T00:28:10;8.00;51.10
27266;DHT22;14766;51.380;13.762;2023-04-03T00:30:37;7.90;50.90
27266;DHT22;14766;51.380;13.762;2023-04-03T00:33:05;7.90;50.90
27266;DHT22;14766;51.380;13.762;2023-04-03T00:35:33;7.90;50.80
27266;DHT22;14766;51.380;13.762;2023-04-03T00:38:01;7.90;51.10
27266;DHT22;14766;51.380;13.762;2023-04-03T00:40:28;7.90;50.90
27266;DHT22;14766;51.380;13.762;2023-04-03T00:43:00;7.90;51.00
27266;DHT22;14766;51.380;13.762;2023-04-03T00:45:36;7.90;51.10
27266;DHT22;14766;51.380;13.762;2023-04-03T00:48:05;7.90;51.10
27266;DHT22;14766;51.380;13.762;2023-04-03T00:50:36;7.90;51.20
27266;DHT22;14766;51.380;13.762;2023-04-03T00:53:06;7.90;51.10
27266;DHT22;14766;51.380;13.762;2023-04-03T00:55:36;7.80;51.00
27266;DHT22;14766;51.380;13.762;2023-04-03T00:58:05;7.80;51.00
27266;DHT22;14766;51.380;13.762;2023-04-03T01:00:34;7.80;50.80
27266;DHT22;14766;51.380;13.762;2023-04-03T01:03:03;7.70;50.90
27266;DHT22;14766;51.380;13.762;2023-04-03T01:05:30;7.70;51.00
27266;DHT22;14766;51.380;13.762;2023-04-03T01:07:59;7.70;51.20
27266;DHT22;14766;51.380;13.762;2023-04-03T01:10:27;7.70;51.30
27266;DHT22;14766;51.380;13.762;2023-04-03T01:13:00;7.60;51.00
27266;DHT22;14766;51.380;13.762;2023-04-03T01:15:28;7.60;51.10
27266;DHT22;14766;51.380;13.762;2023-04-03T01:18:02;7.60;51.10
27266;DHT22;14766;51.380;13.762;2023-04-03T01:25:46;7.50;51.40
27266;DHT22;14766;51.380;13.762;2023-04-03T01:28:20;7.50;51.20
27266;DHT22;14766;51.380;13.762;2023-04-03T01:33:43;7.40;51.30
27266;DHT22;14766;51.380;13.762;2023-04-03T01:36:15;7.40;51.50
27266;DHT22;14766;51.380;13.762;2023-04-03T01:38:42;7.40;51.40
27266;DHT22;14766;51.380;13.762;2023-04-03T01:41:10;7.30;51.60
27266;DHT22;14766;51.380;13.762;2023-04-03T01:43:38;7.30;51.70
27266;DHT22;14766;51.380;13.762;2023-04-03T01:46:06;7.30;51.80
27266;DHT22;14766;51.380;13.762;2023-04-03T01:48:35;7.30;51.90
27266;DHT22;14766;51.380;13.762;2023-04-03T01:51:02;7.20;51.80
27266;DHT22;14766;51.380;13.762;2023-04-03T01:53:29;7.20;51.80
27266;DHT22;14766;51.380;13.762;2023-04-03T01:55:56;7.20;51.90
27266;DHT22;14766;51.380;13.762;2023-04-03T01:58:24;7.20;52.00
27266;DHT22;14766;51.380;13.762;2023-04-03T02:00:52;7.20;52.00
27266;DHT22;14766;51.380;13.762;2023-04-03T02:03:19;7.10;52.00
27266;DHT22;14766;51.380;13.762;2023-04-03T02:05:47;7.10;52.10
27266;DHT22;14766;51.380;13.762;2023-04-03T02:08:15;7.10;52.10
27266;DHT22;14766;51.380;13.762;2023-04-03T02:10:47;7.10;52.10
27266;DHT22;14766;51.380;13.762;2023-04-03T02:13:15;7.00;52.10
27266;DHT22;14766;51.380;13.762;2023-04-03T02:15:42;7.00;52.30
27266;DHT22;14766;51.380;13.762;2023-04-03T02:18:09;7.00;52.30
27266;DHT22;14766;51.380;13.762;2023-04-03T02:20:37;6.90;52.40
27266;DHT22;14766;51.380;13.762;2023-04-03T02:23:05;6.90;52.40
27266;DHT22;14766;51.380;13.762;2023-04-03T02:25:32;6.80;52.40
27266;DHT22;14766;51.380;13.762;2023-04-03T02:28:01;6.80;52.60
27266;DHT22;14766;51.380;13.762;2023-04-03T02:30:30;6.80;52.60
27266;DHT22;14766;51.380;13.762;2023-04-03T02:32:57;6.80;52.70
27266;DHT22;14766;51.380;13.762;2023-04-03T02:35:25;6.70;52.70
27266;DHT22;14766;51.380;13.762;2023-04-03T02:37:55;6.70;52.80
27266;DHT22;14766;51.380;13.762;2023-04-03T02:40:23;6.70;52.90
27266;DHT22;14766;51.380;13.762;2023-04-03T02:42:50;6.70;53.00
27266;DHT22;14766;51.380;13.762;2023-04-03T02:45:18;6.70;53.00
27266;DHT22;14766;51.380;13.762;2023-04-03T02:47:45;6.60;53.00
27266;DHT22;14766;51.380;13.762;2023-04-03T02:50:12;6.60;53.10
27266;DHT22;14766;51.380;13.762;2023-04-03T02:52:39;6.60;53.20
27266;DHT22;14766;51.380;13.762;2023-04-03T02:55:07;6.60;53.30
27266;DHT22;14766;51.380;13.762;2023-04-03T02:57:34;6.50;53.90
27266;DHT22;14766;51.380;13.762;2023-04-03T03:00:02;6.50;53.30
27266;DHT22;14766;51.380;13.762;2023-04-03T03:02:30;6.50;53.40
27266;DHT22;14766;51.380;13.762;2023-04-03T03:04:58;6.50;53.50
27266;DHT22;14766;51.380;13.762;2023-04-03T03:07:25;6.40;53.50
27266;DHT22;14766;51.380;13.762;2023-04-03T03:09:52;6.40;53.50
27266;DHT22;14766;51.380;13.762;2023-04-03T03:12:19;6.40;53.50
27266;DHT22;14766;51.380;13.762;2023-04-03T03:14:49;6.40;53.60
27266;DHT22;14766;51.380;13.762;2023-04-03T03:17:17;6.30;53.60
27266;DHT22;14766;51.380;13.762;2023-04-03T03:19:44;6.30;53.70
27266;DHT22;14766;51.380;13.762;2023-04-03T03:22:12;6.30;53.80
27266;DHT22;14766;51.380;13.762;2023-04-03T03:24:40;6.30;53.90
27266;DHT22;14766;51.380;13.762;2023-04-03T03:27:08;6.20;53.90
27266;DHT22;14766;51.380;13.762;2023-04-03T03:29:35;6.20;54.00
27266;DHT22;14766;51.380;13.762;2023-04-03T03:32:03;6.20;54.00
27266;DHT22;14766;51.380;13.762;2023-04-03T03:34:31;6.20;54.00
27266;DHT22;14766;51.380;13.762;2023-04-03T03:36:59;6.20;54.10
27266;DHT22;14766;51.380;13.762;2023-04-03T03:39:28;6.20;54.20
27266;DHT22;14766;51.380;13.762;2023-04-03T03:41:56;6.10;54.10
27266;DHT22;14766;51.380;13.762;2023-04-03T03:44:23;6.10;54.20
27266;DHT22;14766;51.380;13.762;2023-04-03T03:46:50;6.10;54.20
27266;DHT22;14766;51.380;13.762;2023-04-03T03:49:17;6.10;54.10
27266;DHT22;14766;51.380;13.762;2023-04-03T03:51:45;6.10;54.10
27266;DHT22;14766;51.380;13.762;2023-04-03T03:54:14;6.10;54.20
27266;DHT22;14766;51.380;13.762;2023-04-03T03:56:41;6.00;54.30
27266;DHT22;14766;51.380;13.762;2023-04-03T03:59:11;6.00;54.40
27266;DHT22;14766;51.380;13.762;2023-04-03T04:01:40;6.00;54.50
27266;DHT22;14766;51.380;13.762;2023-04-03T04:04:09;5.90;54.50
27266;DHT22;14766;51.380;13.762;2023-04-03T04:06:36;5.90;54.50
27266;DHT22;14766;51.380;13.762;2023-04-03T04:09:09;5.90;54.70
27266;DHT22;14766;51.380;13.762;2023-04-03T04:11:36;5.80;54.80
27266;DHT22;14766;51.380;13.762;2023-04-03T04:14:03;5.80;54.90
27266;DHT22;14766;51.380;13.762;2023-04-03T04:16:30;5.80;54.90
27266;DHT22;14766;51.380;13.762;2023-04-03T04:19:02;5.70;54.90
27266;DHT22;14766;51.380;13.762;2023-04-03T04:21:31;5.70;54.90
27266;DHT22;14766;51.380;13.762;2023-04-03T04:23:59;5.70;55.00
27266;DHT22;14766;51.380;13.762;2023-04-03T04:26:26;5.70;55.10
27266;DHT22;14766;51.380;13.762;2023-04-03T04:28:54;5.70;55.10
27266;DHT22;14766;51.380;13.762;2023-04-03T04:31:22;5.70;55.90
27266;DHT22;14766;51.380;13.762;2023-04-03T04:33:51;5.60;55.30
27266;DHT22;14766;51.380;13.762;2023-04-03T04:36:18;5.60;55.30
27266;DHT22;14766;51.380;13.762;2023-04-03T04:38:46;5.60;55.30
27266;DHT22;14766;51.380;13.762;2023-04-03T04:41:13;5.60;55.30
27266;DHT22;14766;51.380;13.762;2023-04-03T04:43:40;5.50;55.40
27266;DHT22;14766;51.380;13.762;2023-04-03T04:46:10;5.50;55.40
27266;DHT22;14766;51.380;13.762;2023-04-03T04:48:44;5.50;55.50
27266;DHT22;14766;51.380;13.762;2023-04-03T04:51:13;5.50;55.60
27266;DHT22;14766;51.380;13.762;2023-04-03T04:53:41;5.50;55.60
27266;DHT22;14766;51.380;13.762;2023-04-03T04:56:11;5.50;55.70
27266;DHT22;14766;51.380;13.762;2023-04-03T04:58:39;5.50;55.70
27266;DHT22;14766;51.380;13.762;2023-04-03T05:01:09;5.50;55.70
27266;DHT22;14766;51.380;13.762;2023-04-03T05:03:48;5.50;55.80
27266;DHT22;14766;51.380;13.762;2023-04-03T05:06:18;5.50;55.80
27266;DHT22;14766;51.380;13.762;2023-04-03T05:08:46;5.50;55.80
27266;DHT22;14766;51.380;13.762;2023-04-03T05:11:13;5.50;55.90
27266;DHT22;14766;51.380;13.762;2023-04-03T05:13:41;5.50;55.90
27266;DHT22;14766;51.380;13.762;2023-04-03T05:16:08;5.50;55.80
27266;DHT22;14766;51.380;13.762;2023-04-03T05:18:35;5.60;56.00
27266;DHT22;14766;51.380;13.762;2023-04-03T05:21:08;5.60;56.00
27266;DHT22;14766;51.380;13.762;2023-04-03T05:23:35;5.60;56.00
27266;DHT22;14766;51.380;13.762;2023-04-03T05:26:03;5.60;56.00
27266;DHT22;14766;51.380;13.762;2023-04-03T05:28:31;5.60;56.00
27266;DHT22;14766;51.380;13.762;2023-04-03T05:30:59;5.70;56.00
27266;DHT22;14766;51.380;13.762;2023-04-03T05:33:32;5.70;56.00
27266;DHT22;14766;51.380;13.762;2023-04-03T05:36:04;5.70;56.10
27266;DHT22;14766;51.380;13.762;2023-04-03T05:38:39;5.80;56.10
27266;DHT22;14766;51.380;13.762;2023-04-03T05:41:06;5.80;56.00
27266;DHT22;14766;51.380;13.762;2023-04-03T05:43:33;5.80;56.00
27266;DHT22;14766;51.380;13.762;2023-04-03T05:46:02;5.90;56.00
27266;DHT22;14766;51.380;13.762;2023-04-03T05:48:30;5.90;55.90
27266;DHT22;14766;51.380;13.762;2023-04-03T05:50:59;5.90;55.90
27266;DHT22;14766;51.380;13.762;2023-04-03T05:53:28;6.00;55.90
27266;DHT22;14766;51.380;13.762;2023-04-03T05:56:00;6.00;55.80
27266;DHT22;14766;51.380;13.762;2023-04-03T05:58:30;6.10;55.80
27266;DHT22;14766;51.380;13.762;2023-04-03T06:00:57;6.10;55.80
27266;DHT22;14766;51.380;13.762;2023-04-03T06:03:25;6.20;55.90
27266;DHT22;14766;51.380;13.762;2023-04-03T06:05:53;6.30;55.90
27266;DHT22;14766;51.380;13.762;2023-04-03T06:08:20;6.30;55.60
27266;DHT22;14766;51.380;13.762;2023-04-03T06:10:47;6.40;55.60
27266;DHT22;14766;51.380;13.762;2023-04-03T06:13:14;6.40;55.40
27266;DHT22;14766;51.380;13.762;2023-04-03T06:15:42;6.50;55.20
27266;DHT22;14766;51.380;13.762;2023-04-03T06:18:10;6.60;55.20
27266;DHT22;14766;51.380;13.762;2023-04-03T06:20:37;6.60;54.90
27266;DHT22;14766;51.380;13.762;2023-04-03T06:23:05;6.60;54.60
27266;DHT22;14766;51.380;13.762;2023-04-03T06:25:34;6.70;54.80
27266;DHT22;14766;51.380;13.762;2023-04-03T06:28:01;6.80;54.80
27266;DHT22;14766;51.380;13.762;2023-04-03T06:30:29;6.90;54.90
27266;DHT22;14766;51.380;13.762;2023-04-03T06:32:56;7.00;54.30
27266;DHT22;14766;51.380;13.762;2023-04-03T06:35:23;7.10;54.50
27266;DHT22;14766;51.380;13.762;2023-04-03T06:37:51;7.20;54.50
27266;DHT22;14766;51.380;13.762;2023-04-03T06:40:22;7.40;54.10
27266;DHT22;14766;51.380;13.762;2023-04-03T06:42:51;7.60;54.00
27266;DHT22;14766;51.380;13.762;2023-04-03T06:45:19;8.00;54.00
27266;DHT22;14766;51.380;13.762;2023-04-03T06:47:47;8.40;54.30
27266;DHT22;14766;51.380;13.762;2023-04-03T06:50:14;8.90;54.00
27266;DHT22;14766;51.380;13.762;2023-04-03T06:52:42;9.40;53.40
27266;DHT22;14766;51.380;13.762;2023-04-03T06:55:09;10.00;52.80
27266;DHT22;14766;51.380;13.762;2023-04-03T06:57:37;10.50;50.90
27266;DHT22;14766;51.380;13.762;2023-04-03T07:00:06;11.10;49.30
27266;DHT22;14766;51.380;13.762;2023-04-03T07:02:35;11.60;46.60
27266;DHT22;14766;51.380;13.762;2023-04-03T07:05:02;12.10;46.30
27266;DHT22;14766;51.380;13.762;2023-04-03T07:07:29;12.50;45.50
27266;DHT22;14766;51.380;13.762;2023-04-03T07:09:56;13.00;45.10
27266;DHT22;14766;51.380;13.762;2023-04-03T07:12:23;13.40;42.90
27266;DHT22;14766;51.380;13.762;2023-04-03T07:14:50;13.70;42.20
27266;DHT22;14766;51.380;13.762;2023-04-03T07:17:18;14.10;41.40
27266;DHT22;14766;51.380;13.762;2023-04-03T07:19:45;14.40;39.70
27266;DHT22;14766;51.380;13.762;2023-04-03T07:22:13;14.60;39.20
27266;DHT22;14766;51.380;13.762;2023-04-03T07:24:40;14.80;37.50
27266;DHT22;14766;51.380;13.762;2023-04-03T07:27:07;14.90;36.70
27266;DHT22;14766;51.380;13.762;2023-04-03T07:29:35;14.90;37.30
27266;DHT22;14766;51.380;13.762;2023-04-03T07:32:02;14.80;37.30
27266;DHT22;14766;51.380;13.762;2023-04-03T07:34:30;14.80;37.90
27266;DHT22;14766;51.380;13.762;2023-04-03T07:36:57;14.70;37.70
27266;DHT22;14766;51.380;13.762;2023-04-03T07:39:29;14.80;37.40
27266;DHT22;14766;51.380;13.762;2023-04-03T07:41:56;14.80;37.80
27266;DHT22;14766;51.380;13.762;2023-04-03T07:44:23;15.00;38.00
27266;DHT22;14766;51.380;13.762;2023-04-03T07:46:51;15.20;38.00
27266;DHT22;14766;51.380;13.762;2023-04-03T07:49:19;15.50;38.00
27266;DHT22;14766;51.380;13.762;2023-04-03T07:51:46;15.70;37.20
27266;DHT22;14766;51.380;13.762;2023-04-03T07:54:13;16.00;37.40
27266;DHT22;14766;51.380;13.762;2023-04-03T07:56:41;16.30;36.70
27266;DHT22;14766;51.380;13.762;2023-04-03T07:59:10;16.60;35.80
27266;DHT22;14766;51.380;13.762;2023-04-03T08:01:38;16.70;35.50
27266;DHT22;14766;51.380;13.762;2023-04-03T08:04:05;16.90;35.50
27266;DHT22;14766;51.380;13.762;2023-04-03T08:06:33;17.00;34.30
27266;DHT22;14766;51.380;13.762;2023-04-03T08:09:13;17.10;33.60
27266;DHT22;14766;51.380;13.762;2023-04-03T08:11:41;17.20;33.40
27266;DHT22;14766;51.380;13.762;2023-04-03T08:14:08;17.10;32.20
27266;DHT22;14766;51.380;13.762;2023-04-03T08:16:38;16.90;32.10
27266;DHT22;14766;51.380;13.762;2023-04-03T08:19:05;16.80;31.40
27266;DHT22;14766;51.380;13.762;2023-04-03T08:21:47;16.50;31.80
27266;DHT22;14766;51.380;13.762;2023-04-03T08:24:16;16.20;33.20
27266;DHT22;14766;51.380;13.762;2023-04-03T08:26:43;15.90;33.20
27266;DHT22;14766;51.380;13.762;2023-04-03T08:29:11;15.50;33.20
27266;DHT22;14766;51.380;13.762;2023-04-03T08:31:38;15.20;34.00
27266;DHT22;14766;51.380;13.762;2023-04-03T08:34:05;14.90;34.30
27266;DHT22;14766;51.380;13.762;2023-04-03T08:36:32;14.60;34.30
27266;DHT22;14766;51.380;13.762;2023-04-03T08:38:59;14.30;34.60
27266;DHT22;14766;51.380;13.762;2023-04-03T08:41:32;14.00;35.20
27266;DHT22;14766;51.380;13.762;2023-04-03T08:44:25;13.80;36.80
27266;DHT22;14766;51.380;13.762;2023-04-03T08:49:45;13.60;37.20
27266;DHT22;14766;51.380;13.762;2023-04-03T08:52:44;13.60;37.30
27266;DHT22;14766;51.380;13.762;2023-04-03T08:55:50;13.60;37.90
27266;DHT22;14766;51.380;13.762;2023-04-03T08:58:21;13.70;38.00
27266;DHT22;14766;51.380;13.762;2023-04-03T09:03:21;13.90;36.20
27266;DHT22;14766;51.380;13.762;2023-04-03T09:05:51;13.80;36.20
27266;DHT22;14766;51.380;13.762;2023-04-03T09:08:24;13.80;36.00
27266;DHT22;14766;51.380;13.762;2023-04-03T09:11:12;13.70;35.60
27266;DHT22;14766;51.380;13.762;2023-04-03T09:16:48;13.30;34.60
27266;DHT22;14766;51.380;13.762;2023-04-03T09:22:26;13.00;36.20
27266;DHT22;14766;51.380;13.762;2023-04-03T09:25:05;13.10;36.60
27266;DHT22;14766;51.380;13.762;2023-04-03T09:27:34;13.40;37.40
27266;DHT22;14766;51.380;13.762;2023-04-03T09:30:02;13.70;37.80
27266;DHT22;14766;51.380;13.762;2023-04-03T09:32:34;14.20;36.20
27266;DHT22;14766;51.380;13.762;2023-04-03T09:42:59;16.00;31.70
27266;DHT22;14766;51.380;13.762;2023-04-03T09:45:32;16.30;29.80
27266;DHT22;14766;51.380;13.762;2023-04-03T09:48:07;16.40;29.70
27266;DHT22;14766;51.380;13.762;2023-04-03T09:56:25;16.00;28.10
27266;DHT22;14766;51.380;13.762;2023-04-03T10:01:32;15.30;28.40
27266;DHT22;14766;51.380;13.762;2023-04-03T10:04:09;15.10;29.40
27266;DHT22;14766;51.380;13.762;2023-04-03T10:06:43;15.00;30.00
27266;DHT22;14766;51.380;13.762;2023-04-03T10:09:23;15.00;29.60
27266;DHT22;14766;51.380;13.762;2023-04-03T10:14:39;15.10;29.10
27266;DHT22;14766;51.380;13.762;2023-04-03T10:18:02;15.20;29.70
27266;DHT22;14766;51.380;13.762;2023-04-03T10:20:32;15.30;29.40
27266;DHT22;14766;51.380;13.762;2023-04-03T10:26:00;15.20;29.90
27266;DHT22;14766;51.380;13.762;2023-04-03T10:34:08;14.70;29.90
27266;DHT22;14766;51.380;13.762;2023-04-03T10:36:57;14.40;30.10
27266;DHT22;14766;51.380;13.762;2023-04-03T10:42:39;13.90;31.10
27266;DHT22;14766;51.380;13.762;2023-04-03T10:53:34;13.40;31.40
27266;DHT22;14766;51.380;13.762;2023-04-03T10:58:58;13.20;32.50
27266;DHT22;14766;51.380;13.762;2023-04-03T11:01:39;13.20;32.20
27266;DHT22;14766;51.380;13.762;2023-04-03T11:04:10;13.20;31.40
27266;DHT22;14766;51.380;13.762;2023-04-03T11:11:44;13.10;32.70
27266;DHT22;14766;51.380;13.762;2023-04-03T11:14:32;13.10;33.20
27266;DHT22;14766;51.380;13.762;2023-04-03T11:19:54;13.30;33.50
27266;DHT22;14766;51.380;13.762;2023-04-03T11:22:36;13.30;33.00
27266;DHT22;14766;51.380;13.762;2023-04-03T11:33:10;13.20;32.00
27266;DHT22;14766;51.380;13.762;2023-04-03T11:35:47;13.10;33.10
27266;DHT22;14766;51.380;13.762;2023-04-03T11:38:30;13.00;32.80
27266;DHT22;14766;51.380;13.762;2023-04-03T11:41:07;13.00;33.00
27266;DHT22;14766;51.380;13.762;2023-04-03T11:43:42;13.00;32.90
27266;DHT22;14766;51.380;13.762;2023-04-03T11:46:40;12.90;32.90
27266;DHT22;14766;51.380;13.762;2023-04-03T12:01:42;12.90;33.40
27266;DHT22;14766;51.380;13.762;2023-04-03T12:19:31;12.50;32.60
27266;DHT22;14766;51.380;13.762;2023-04-03T12:22:11;12.40;33.00
27266;DHT22;14766;51.380;13.762;2023-04-03T12:24:44;12.30;33.60
27266;DHT22;14766;51.380;13.762;2023-04-03T12:46:38;11.90;33.80
27266;DHT22;14766;51.380;13.762;2023-04-03T12:49:38;11.80;33.80
27266;DHT22;14766;51.380;13.762;2023-04-03T12:52:40;11.80;34.10
27266;DHT22;14766;51.380;13.762;2023-04-03T12:55:13;11.80;34.30
27266;DHT22;14766;51.380;13.762;2023-04-03T12:57:42;11.80;34.30
27266;DHT22;14766;51.380;13.762;2023-04-03T13:00:30;11.70;33.80
27266;DHT22;14766;51.380;13.762;2023-04-03T13:03:05;11.70;33.50
27266;DHT22;14766;51.380;13.762;2023-04-03T13:05:33;11.70;33.80
27266;DHT22;14766;51.380;13.762;2023-04-03T13:08:07;11.70;33.80
27266;DHT22;14766;51.380;13.762;2023-04-03T13:13:26;11.70;34.00
27266;DHT22;14766;51.380;13.762;2023-04-03T13:15:54;11.70;34.20
27266;DHT22;14766;51.380;13.762;2023-04-03T13:18:31;11.70;34.60
27266;DHT22;14766;51.380;13.762;2023-04-03T13:21:06;11.70;34.40
27266;DHT22;14766;51.380;13.762;2023-04-03T13:23:36;11.60;34.30
27266;DHT22;14766;51.380;13.762;2023-04-03T13:26:06;11.60;34.50
27266;DHT22;14766;51.380;13.762;2023-04-03T13:28:34;11.60;34.30
27266;DHT22;14766;51.380;13.762;2023-04-03T13:33:58;11.50;34.20
27266;DHT22;14766;51.380;13.762;2023-04-03T13:36:33;11.40;33.80
27266;DHT22;14766;51.380;13.762;2023-04-03T13:41:35;11.40;34.10
27266;DHT22;14766;51.380;13.762;2023-04-03T13:46:44;11.40;34.20
27266;DHT22;14766;51.380;13.762;2023-04-03T13:51:50;11.30;34.10
27266;DHT22;14766;51.380;13.762;2023-04-03T13:54:36;11.20;33.90
27266;DHT22;14766;51.380;13.762;2023-04-03T13:57:15;11.20;34.00
27266;DHT22;14766;51.380;13.762;2023-04-03T13:59:45;11.20;34.20
27266;DHT22;14766;51.380;13.762;2023-04-03T14:02:16;11.20;34.00
27266;DHT22;14766;51.380;13.762;2023-04-03T14:07:13;11.20;34.60
27266;DHT22;14766;51.380;13.762;2023-04-03T14:09:40;11.20;34.50
27266;DHT22;14766;51.380;13.762;2023-04-03T14:12:37;11.20;34.20
27266;DHT22;14766;51.380;13.762;2023-04-03T14:15:27;11.20;33.80
27266;DHT22;14766;51.380;13.762;2023-04-03T14:17:56;11.10;34.20
27266;DHT22;14766;51.380;13.762;2023-04-03T14:20:28;11.10;34.60
27266;DHT22;14766;51.380;13.762;2023-04-03T14:22:55;11.10;34.80
27266;DHT22;14766;51.380;13.762;2023-04-03T14:25:22;11.10;35.10
27266;DHT22;14766;51.380;13.762;2023-04-03T14:27:52;11.00;35.30
27266;DHT22;14766;51.380;13.762;2023-04-03T14:30:27;11.00;35.00
27266;DHT22;14766;51.380;13.762;2023-04-03T14:32:55;10.90;35.00
27266;DHT22;14766;51.380;13.762;2023-04-03T14:35:23;10.90;35.00
27266;DHT22;14766;51.380;13.762;2023-04-03T14:37:52;10.90;35.40
27266;DHT22;14766;51.380;13.762;2023-04-03T14:40:25;10.80;35.20
27266;DHT22;14766;51.380;13.762;2023-04-03T14:42:53;10.80;35.20
27266;DHT22;14766;51.380;13.762;2023-04-03T14:45:23;10.70;35.00
27266;DHT22;14766;51.380;13.762;2023-04-03T14:47:55;10.70;35.30
27266;DHT22;14766;51.380;13.762;2023-04-03T14:50:26;10.70;35.30
27266;DHT22;14766;51.380;13.762;2023-04-03T14:52:56;10.70;35.10
27266;DHT22;14766;51.380;13.762;2023-04-03T14:55:25;10.70;35.10
27266;DHT22;14766;51.380;13.762;2023-04-03T14:57:54;10.70;35.20
27266;DHT22;14766;51.380;13.762;2023-04-03T15:00:22;10.70;34.80
27266;DHT22;14766;51.380;13.762;2023-04-03T15:02:49;10.70;34.90
27266;DHT22;14766;51.380;13.762;2023-04-03T15:05:17;10.70;34.80
27266;DHT22;14766;51.380;13.762;2023-04-03T15:07:54;10.70;35.10
27266;DHT22;14766;51.380;13.762;2023-04-03T15:10:29;10.70;34.90
27266;DHT22;14766;51.380;13.762;2023-04-03T15:12:57;10.70;34.50
27266;DHT22;14766;51.380;13.762;2023-04-03T15:15:28;10.60;34.30
27266;DHT22;14766;51.380;13.762;2023-04-03T15:17:57;10.60;34.50
27266;DHT22;14766;51.380;13.762;2023-04-03T15:20:27;10.50;34.70
27266;DHT22;14766;51.380;13.762;2023-04-03T15:22:57;10.50;34.60
27266;DHT22;14766;51.380;13.762;2023-04-03T15:25:27;10.50;34.80
27266;DHT22;14766;51.380;13.762;2023-04-03T15:27:55;10.50;34.80
27266;DHT22;14766;51.380;13.762;2023-04-03T15:30:23;10.50;35.00
27266;DHT22;14766;51.380;13.762;2023-04-03T15:32:50;10.50;35.20
27266;DHT22;14766;51.380;13.762;2023-04-03T15:35:17;10.50;35.40
27266;DHT22;14766;51.380;13.762;2023-04-03T15:37:44;10.50;35.10
27266;DHT22;14766;51.380;13.762;2023-04-03T15:40:12;10.50;35.00
27266;DHT22;14766;51.380;13.762;2023-04-03T15:42:39;10.40;34.20
27266;DHT22;14766;51.380;13.762;2023-04-03T15:45:07;10.40;34.40
27266;DHT22;14766;51.380;13.762;2023-04-03T15:47:35;10.40;34.70
27266;DHT22;14766;51.380;13.762;2023-04-03T15:50:02;10.40;34.80
27266;DHT22;14766;51.380;13.762;2023-04-03T15:52:32;10.40;34.80
27266;DHT22;14766;51.380;13.762;2023-04-03T15:55:01;10.40;35.20
27266;DHT22;14766;51.380;13.762;2023-04-03T15:57:28;10.30;35.00
27266;DHT22;14766;51.380;13.762;2023-04-03T15:59:55;10.30;35.20
27266;DHT22;14766;51.380;13.762;2023-04-03T16:02:23;10.30;35.20
27266;DHT22;14766;51.380;13.762;2023-04-03T16:04:50;10.30;35.40
27266;DHT22;14766;51.380;13.762;2023-04-03T16:07:17;10.30;35.70
27266;DHT22;14766;51.380;13.762;2023-04-03T16:09:44;10.30;35.60
27266;DHT22;14766;51.380;13.762;2023-04-03T16:12:12;10.30;35.40
27266;DHT22;14766;51.380;13.762;2023-04-03T16:14:39;10.30;35.50
27266;DHT22;14766;51.380;13.762;2023-04-03T16:17:06;10.20;35.50
27266;DHT22;14766;51.380;13.762;2023-04-03T16:19:34;10.20;35.80
27266;DHT22;14766;51.380;13.762;2023-04-03T16:22:01;10.20;35.80
27266;DHT22;14766;51.380;13.762;2023-04-03T16:24:29;10.20;35.80
27266;DHT22;14766;51.380;13.762;2023-04-03T16:26:56;10.10;35.90
27266;DHT22;14766;51.380;13.762;2023-04-03T16:29:23;10.10;35.70
27266;DHT22;14766;51.380;13.762;2023-04-03T16:31:50;10.10;35.80
27266;DHT22;14766;51.380;13.762;2023-04-03T16:34:19;10.00;35.90
27266;DHT22;14766;51.380;13.762;2023-04-03T16:36:47;10.00;36.00
27266;DHT22;14766;51.380;13.762;2023-04-03T16:39:14;10.00;36.20
27266;DHT22;14766;51.380;13.762;2023-04-03T16:41:41;9.90;36.30
27266;DHT22;14766;51.380;13.762;2023-04-03T16:44:10;9.90;36.40
27266;DHT22;14766;51.380;13.762;2023-04-03T16:46:37;9.80;36.50
27266;DHT22;14766;51.380;13.762;2023-04-03T16:49:04;9.80;36.60
27266;DHT22;14766;51.380;13.762;2023-04-03T16:51:31;9.80;36.70
27266;DHT22;14766;51.380;13.762;2023-04-03T16:53:58;9.80;36.80
27266;DHT22;14766;51.380;13.762;2023-04-03T16:56:25;9.70;36.90
27266;DHT22;14766;51.380;13.762;2023-04-03T16:58:55;9.70;37.00
27266;DHT22;14766;51.380;13.762;2023-04-03T17:01:22;9.70;37.10
27266;DHT22;14766;51.380;13.762;2023-04-03T17:03:50;9.70;37.30
27266;DHT22;14766;51.380;13.762;2023-04-03T17:06:19;9.60;37.60
27266;DHT22;14766;51.380;13.762;2023-04-03T17:08:48;9.60;37.60
27266;DHT22;14766;51.380;13.762;2023-04-03T17:11:27;9.60;37.70
27266;DHT22;14766;51.380;13.762;2023-04-03T17:13:55;9.60;37.90
27266;DHT22;14766;51.380;13.762;2023-04-03T17:16:23;9.60;38.20
27266;DHT22;14766;51.380;13.762;2023-04-03T17:18:52;9.50;38.60
27266;DHT22;14766;51.380;13.762;2023-04-03T17:21:20;9.50;39.00
27266;DHT22;14766;51.380;13.762;2023-04-03T17:23:56;9.50;39.20
27266;DHT22;14766;51.380;13.762;2023-04-03T17:26:28;9.50;39.50
27266;DHT22;14766;51.380;13.762;2023-04-03T17:28:55;9.40;39.60
27266;DHT22;14766;51.380;13.762;2023-04-03T17:31:23;9.40;39.90
27266;DHT22;14766;51.380;13.762;2023-04-03T17:33:50;9.30;40.10
27266;DHT22;14766;51.380;13.762;2023-04-03T17:36:19;9.30;40.60
27266;DHT22;14766;51.380;13.762;2023-04-03T17:38:50;9.30;40.70
27266;DHT22;14766;51.380;13.762;2023-04-03T17:41:17;9.20;40.80
27266;DHT22;14766;51.380;13.762;2023-04-03T17:43:45;9.20;41.10
27266;DHT22;14766;51.380;13.762;2023-04-03T17:46:12;9.10;41.20
27266;DHT22;14766;51.380;13.762;2023-04-03T17:48:40;9.10;42.00
27266;DHT22;14766;51.380;13.762;2023-04-03T17:51:13;9.10;41.50
27266;DHT22;14766;51.380;13.762;2023-04-03T17:53:41;9.00;41.60
27266;DHT22;14766;51.380;13.762;2023-04-03T17:56:16;9.10;41.90
27266;DHT22;14766;51.380;13.762;2023-04-03T17:58:44;9.00;42.10
27266;DHT22;14766;51.380;13.762;2023-04-03T18:01:15;9.00;42.30
27266;DHT22;14766;51.380;13.762;2023-04-03T18:03:43;9.00;42.60